AirNav   Pilot Hours Calculator
 
 1104 users online  

32FA Sunset Strip Airpark
Okeechobee, Florida, USA

GOING TO OKEECHOBEE?


FAA INFORMATION EFFECTIVE 22 APRIL 2021

Location

FAA Identifier: 32FA
Lat/Long: 27-14-03.1660N 080-54-13.2240W
27-14.052767N 080-54.220400W
27.2342128,-80.9036733
(estimated)
Elevation: 34 ft. / 10 m (estimated)
Variation: 03W (1985)
From city: 3 miles W of OKEECHOBEE, FL
Time zone: UTC -4 (UTC -5 during Standard Time)
Zip code: 34974

Airport Operations

Airport use: Private use. Permission required prior to landing
Activation date: 07/1977
Control tower: no
ARTCC: MIAMI CENTER
FSS: SAINT PETERSBURG FLIGHT SERVICE STATION
Attendance: UNATNDD
Wind indicator: yes
Segmented circle: no

Airport Communications

WX AWOS-3 at OBE (3 nm NE): 118.675 (863-467-1148)

Nearby radio navigation aids

VOR radial/distance  VOR name  Freq  Var
PHKr337/29.4PAHOKEE VOR/DME115.4000E
TRVr227/34.6TREASURE VORTAC117.3007W
LBVr046/35.7LA BELLE VORTAC110.4001E

 
NDB name  Hdg/Dist  Freq  Var  ID
FORT PIERCE249/32.127507WFPR ..-. .--. .-.
UNITED308/36.140505WUTX ..- - -..-

Airport Services

Runway Information

Runway 8/26

Dimensions: 5000 x 100 ft. / 1524 x 30 m
Surface: turf
RUNWAY 8  RUNWAY 26
Traffic pattern: rightleft

Airport Ownership and Management from official FAA records

Ownership: Privately-owned
Owner: SUNSET STRIP AIRPARK INC
PO BOX 92
OKEECHOBEE, FL 34972
Phone 863-467-5808
Manager: EDDIE MATCHETT
SUNSET STRIP AIRPARK INC, PO BOX 92
OKEECHOBEE, FL 34972
Phone 863-467-5808

Airport Operational Statistics

Aircraft based on the field: 5
Single engine airplanes: 3
Multi engine airplanes: 2
    

Additional Remarks

FOR CD CTC MIAMI ARTCC AT 305-716-1731.

Instrument Procedures

There are no published instrument procedures at 32FA.

Some nearby airports with instrument procedures:

KOBE - Okeechobee County Airport (3 nm NE)
KSEF - Sebring Regional Airport (27 nm NW)
KPHK - Palm Beach County Glades Airport (29 nm SE)
2IS - Airglades Airport (31 nm S)
KFPR - Treasure Coast International Airport (32 nm NE)
 
Loc | Ops | Rwys | IFR | FBO | Links
Com | Nav | Svcs | Stats | Notes

Reliance Aviation
AirBoss

 
Area around 32FA (Sunset Strip Airpark)
 
Road maps at: MapQuest Bing Google
 
Aerial photo
WARNING: Photo may not be current or correct
Aerial photo of 32FA (Sunset Strip Airpark)
Do you have a better or more recent aerial photo of Sunset Strip Airpark that you would like to share? If so, please send us your photo.

 
Sectional chart

 
Airport distance calculator
Flying to Sunset Strip Airpark? Find the distance to fly.

From to 32FA

Sunrise and sunset
Times for 14-May-2021
 Local
(UTC-4)
 Zulu
(UTC)
Morning civil twilight06:1210:12
Sunrise06:3710:37
Sunset20:0300:03
Evening civil twilight20:2800:28

Current date and time
Zulu (UTC)  15-May-2021 00:20:17
Local (UTC-4)  14-May-2021 20:20:17
 
METAR
KOBE 
3nm NE 
142355Z AUTO 04007KT CLR 24/18 A3005 RMK AO2
TAF
KFPR 
32nm NE 
150013Z 1500/1524 02008KT P6SM VCSH FEW020 SCT030 BKN050 FM150200 03006KT P6SM SCT040 FM151500 03011G20KT P6SM FEW040 SCT250 FM151800 03012G22KT P6SM VCSH SCT040 SCT250
KVRB 
36nm NE 
150013Z 1500/1524 02010KT P6SM VCSH SCT025 BKN050 FM150400 04010KT P6SM SCT040 BKN100 FM151500 03012G20KT P6SM FEW040 SCT250 FM151800 03016G23KT P6SM VCSH SCT040 SCT250
KSUA 
37nm E 
141730Z 1418/1518 03013G18KT P6SM BKN020 BKN060 FM142000 03010KT P6SM VCSH SCT030 BKN060 FM150000 02008KT P6SM SCT040 FM151500 03015G22KT P6SM FEW040 SCT250 AMD NOT SKED
NOTAMs
Click for the latest NOTAMs
NOTAMs are issued by the DoD/FAA and will open in a separate window not controlled by AirNav.

 

 
 

Would you like to see your business listed on this page?

 If your business provides an interesting product or service to pilots, flight crews, aircraft, or users of the Sunset Strip Airpark, you should consider listing it here.  To start the listing process, click on the button below
 
Add a business
 

Other Pages about Sunset Strip Airpark

Update a link
 
Copyright © AirNav, LLC. All rights reserved. Privacy Policy  Contact